Bevent, Wisconsin
Current Conditions -  °F | °C
As of 10:55 PM on Saturday 25 Oct 2014 (Local Time) from KCWA Reporting Station
Clear Clear  
Wind Chill: 39°   Ceiling: Unl
Heat Index: 45°   Visibility: 10mi
Dew Point: 27°   Wind: 10mph
Humidity: 49%   Direction: 300°WNW
Pressure: 29.97"   Gusts: NA
Location:  44.8205°N, 89.392°W
Report Text: KCWA 260355Z AUTO 30009KT 10SM CLR 07/M03 A2997 RMK AO2
Loading
Personal Weather Stations






























Interactive Weather Map
Tropical Storm Tracking
New forecast layout! Learn more

10-Day Weather Forecast

Advertisements
Track Severe Weather on mobile